Time;durP1;ratioP1;P1;durP2;ratioP2;P2;SDS_P1;SDS_P2;PMS_P1;PMS_P2;Temp;Humidity;BMP_temperature;BMP_pressure;BME280_temperature;BME280_humidity;BME280_pressure;Samples;Min_cycle;Max_cycle;Signal;HPM_P1;HPM_P2
2023/04/19 00:02:24;;;;;;;31.80;28.80;;;;;;;9.40;94.33;98064.92;106934;1276;22837;-78
2023/04/19 00:04:54;;;;;;;30.10;27.40;;;;;;;9.39;94.88;98065.31;106823;1276;22602;-78
2023/04/19 00:07:22;;;;;;;34.90;31.70;;;;;;;9.36;95.81;98061.15;106949;1276;23270;-78
2023/04/19 00:09:50;;;;;;;31.40;28.10;;;;;;;9.33;96.44;98062.10;106891;1276;22781;-78
2023/04/19 00:12:18;;;;;;;31.90;29.10;;;;;;;9.29;97.22;98057.31;106785;1276;25368;-78
2023/04/19 00:14:46;;;;;;;32.40;29.50;;;;;;;9.23;97.61;98051.07;106883;1276;25448;-78
2023/04/19 00:17:14;;;;;;;33.90;30.70;;;;;;;9.21;98.30;98048.30;106645;1275;25252;-77
2023/04/19 00:19:43;;;;;;;33.30;30.10;;;;;;;9.18;98.54;98045.45;106992;1255;24185;-78
2023/04/19 00:22:11;;;;;;;32.00;29.10;;;;;;;9.16;97.87;98043.05;106940;1276;24555;-80
2023/04/19 00:24:39;;;;;;;33.40;30.40;;;;;;;9.16;99.01;98041.54;106932;1276;23370;-82
2023/04/19 00:27:07;;;;;;;33.80;30.80;;;;;;;9.13;99.53;98036.02;107197;1276;22586;-77
2023/04/19 00:29:35;;;;;;;34.80;31.80;;;;;;;9.11;99.92;98033.79;108148;1276;25326;-79
2023/04/19 00:32:05;;;;;;;32.60;29.70;;;;;;;9.08;99.63;98029.52;108088;1276;24159;-77
2023/04/19 00:34:33;;;;;;;35.10;32.00;;;;;;;9.08;100.00;98025.28;108274;1276;22524;-78
2023/04/19 00:37:04;;;;;;;34.00;31.00;;;;;;;9.06;99.83;98027.61;108135;1276;22576;-77
2023/04/19 00:39:33;;;;;;;34.40;31.20;;;;;;;9.07;100.00;98021.38;108202;1276;22843;-80
2023/04/19 00:42:01;;;;;;;35.40;31.90;;;;;;;9.07;99.85;98018.79;107227;1276;22575;-78
2023/04/19 00:44:29;;;;;;;34.70;31.30;;;;;;;9.07;100.00;98012.94;107580;1276;22636;-78
2023/04/19 00:46:59;;;;;;;36.80;33.40;;;;;;;9.04;100.00;98014.40;107666;1276;22561;-78
2023/04/19 00:49:27;;;;;;;34.70;31.60;;;;;;;9.01;100.00;98016.21;107551;1276;22685;-78
2023/04/19 00:51:55;;;;;;;38.40;34.90;;;;;;;9.00;100.00;98016.23;107399;1276;25448;-78
2023/04/19 00:54:23;;;;;;;37.90;34.40;;;;;;;8.95;100.00;98011.27;106701;1276;24410;-78
2023/04/19 00:56:52;;;;;;;40.00;36.60;;;;;;;8.90;100.00;98008.27;106710;1276;22535;-78
2023/04/19 00:59:20;;;;;;;38.10;34.80;;;;;;;8.89;100.00;98006.50;106681;1276;22622;-77
2023/04/19 01:01:48;;;;;;;37.50;34.10;;;;;;;8.86;100.00;98004.70;106874;1276;22639;-78
2023/04/19 01:04:17;;;;;;;41.20;37.20;;;;;;;8.86;100.00;98002.08;106888;1276;22550;-78
2023/04/19 01:06:46;;;;;;;38.40;35.10;;;;;;;8.80;100.00;98000.84;106898;1276;22670;-78
2023/04/19 01:09:14;;;;;;;38.70;35.20;;;;;;;8.77;100.00;97998.56;106848;1276;22637;-78
2023/04/19 01:11:42;;;;;;;39.60;35.90;;;;;;;8.76;100.00;97997.07;106614;1276;22640;-78
2023/04/19 01:14:10;;;;;;;37.80;34.40;;;;;;;8.75;100.00;97993.48;106836;1276;23023;-79
2023/04/19 01:16:38;;;;;;;38.70;35.20;;;;;;;8.72;100.00;97986.05;106905;1276;22736;-78
2023/04/19 01:19:06;;;;;;;39.90;36.00;;;;;;;8.69;100.00;97985.96;106843;1276;22674;-78
2023/04/19 01:21:38;;;;;;;38.00;34.70;;;;;;;8.63;100.00;97980.70;106624;1261;22644;-78
2023/04/19 01:24:06;;;;;;;38.20;34.70;;;;;;;8.61;100.00;97977.02;106645;1276;22651;-78
2023/04/19 01:26:34;;;;;;;38.60;35.00;;;;;;;8.59;100.00;97974.14;106548;1276;25346;-78
2023/04/19 01:29:03;;;;;;;41.30;37.60;;;;;;;8.57;100.00;97970.66;106798;1276;22545;-78
2023/04/19 01:31:30;;;;;;;35.80;32.70;;;;;;;8.52;100.00;97967.86;106825;1276;22522;-78
2023/04/19 01:33:58;;;;;;;36.80;33.40;;;;;;;8.50;100.00;97964.66;106654;1276;22539;-78
2023/04/19 01:36:26;;;;;;;36.10;32.70;;;;;;;8.47;100.00;97961.73;106567;1277;24601;-78
2023/04/19 01:38:55;;;;;;;35.90;32.50;;;;;;;8.47;100.00;97959.60;106778;1277;25416;-78
2023/04/19 01:41:25;;;;;;;37.50;33.80;;;;;;;8.45;100.00;97958.96;106697;1277;22615;-79
2023/04/19 01:43:54;;;;;;;37.10;33.50;;;;;;;8.43;100.00;97954.89;106774;1277;22526;-78
2023/04/19 01:46:22;;;;;;;36.10;32.90;;;;;;;8.39;100.00;97954.89;106632;1277;24214;-79
2023/04/19 01:48:51;;;;;;;36.20;32.90;;;;;;;8.37;100.00;97952.84;106713;1277;22550;-79
2023/04/19 01:51:21;;;;;;;37.00;33.60;;;;;;;8.35;100.00;97952.30;106792;1276;22797;-78
2023/04/19 01:53:53;;;;;;;35.50;32.30;;;;;;;8.32;100.00;97945.78;106681;1277;22531;-78
2023/04/19 01:56:23;;;;;;;38.50;35.10;;;;;;;8.31;100.00;97939.20;106574;1277;22547;-79
2023/04/19 01:58:51;;;;;;;40.10;36.30;;;;;;;8.29;100.00;97938.45;106551;1276;22602;-79
2023/04/19 02:01:19;;;;;;;34.90;31.90;;;;;;;8.25;100.00;97936.14;106555;1277;22588;-79
2023/04/19 02:03:47;;;;;;;36.50;33.40;;;;;;;8.25;100.00;97932.11;106551;1277;24553;-78
2023/04/19 02:06:15;;;;;;;35.00;31.80;;;;;;;8.22;100.00;97923.55;106668;1277;22576;-80
2023/04/19 02:08:43;;;;;;;38.40;34.70;;;;;;;8.19;100.00;97923.30;106708;1273;22632;-78
2023/04/19 02:11:15;;;;;;;38.60;35.10;;;;;;;8.20;100.00;97917.60;106724;1276;25306;-79
2023/04/19 02:13:43;;;;;;;36.50;33.10;;;;;;;8.19;100.00;97914.86;106761;1277;22635;-79
2023/04/19 02:16:11;;;;;;;36.00;32.70;;;;;;;8.16;100.00;97914.70;106739;1277;25287;-79
2023/04/19 02:18:40;;;;;;;37.20;33.90;;;;;;;8.12;100.00;97917.52;106609;1277;22525;-79
2023/04/19 02:21:09;;;;;;;36.70;33.20;;;;;;;8.07;100.00;97917.19;106860;1277;26567;-79
2023/04/19 02:23:37;;;;;;;35.60;32.40;;;;;;;8.02;100.00;97915.83;106609;1277;22525;-78
2023/04/19 02:26:05;;;;;;;37.70;34.10;;;;;;;7.98;100.00;97914.14;106524;1277;22550;-77
2023/04/19 02:28:34;;;;;;;36.60;33.50;;;;;;;7.97;100.00;97910.34;106667;1276;22624;-77
2023/04/19 02:31:05;;;;;;;36.20;32.80;;;;;;;7.93;100.00;97909.78;106508;1277;24572;-81
2023/04/19 02:33:35;;;;;;;34.60;31.40;;;;;;;7.92;100.00;97910.91;106542;1276;22641;-77
2023/04/19 02:36:03;;;;;;;34.80;31.60;;;;;;;7.90;100.00;97908.25;106668;1276;24321;-77
2023/04/19 02:38:33;;;;;;;34.20;29.80;;;;;;;7.86;100.00;97908.88;106692;1276;22757;-77
2023/04/19 02:41:03;;;;;;;33.80;30.50;;;;;;;7.85;100.00;97906.68;106964;1276;22860;-75
2023/04/19 02:43:31;;;;;;;33.70;30.50;;;;;;;7.83;100.00;97903.42;106840;1276;26942;-77
2023/04/19 02:46:00;;;;;;;32.60;28.90;;;;;;;7.81;100.00;97902.69;106699;1276;24365;-77
2023/04/19 02:48:28;;;;;;;30.00;26.60;;;;;;;7.81;100.00;97896.69;106694;1276;24331;-76
2023/04/19 02:50:57;;;;;;;30.70;27.60;;;;;;;7.80;100.00;97895.04;106924;1276;22538;-78
2023/04/19 02:53:25;;;;;;;28.50;25.70;;;;;;;7.78;100.00;97895.52;106885;1276;22795;-78
2023/04/19 02:55:52;;;;;;;27.40;25.10;;;;;;;7.76;100.00;97892.54;106450;1276;24369;-75
2023/04/19 02:58:20;;;;;;;28.60;25.90;;;;;;;7.75;100.00;97891.37;106555;1276;22642;-78
2023/04/19 03:01:18;;;;;;;28.50;25.70;;;;;;;7.72;100.00;97883.08;106652;1276;24189;-78
2023/04/19 03:03:46;;;;;;;27.70;25.10;;;;;;;7.69;100.00;97881.10;106608;1276;22638;-78
2023/04/19 03:06:15;;;;;;;27.30;24.90;;;;;;;7.65;100.00;97878.09;106878;1276;22523;-79
2023/04/19 03:08:43;;;;;;;27.30;24.80;;;;;;;7.64;100.00;97876.70;106890;1276;24499;-77
2023/04/19 03:11:15;;;;;;;25.60;23.30;;;;;;;7.60;100.00;97867.39;106727;1276;22641;-77
2023/04/19 03:13:43;;;;;;;26.70;24.20;;;;;;;7.59;100.00;97863.69;106715;1276;22535;-77
2023/04/19 03:16:12;;;;;;;26.60;24.20;;;;;;;7.58;100.00;97860.17;106464;1276;25220;-77
2023/04/19 03:18:41;;;;;;;26.50;24.00;;;;;;;7.58;100.00;97856.36;106505;1276;25322;-77
2023/04/19 03:21:10;;;;;;;26.70;24.40;;;;;;;7.54;100.00;97859.71;106828;1276;22571;-81
2023/04/19 03:23:46;;;;;;;27.90;25.30;;;;;;;7.49;100.00;97856.22;106880;1276;22808;-81
2023/04/19 03:26:14;;;;;;;25.40;23.10;;;;;;;7.44;100.00;97860.23;106757;1253;24199;-80
2023/04/19 03:28:45;;;;;;;25.70;23.60;;;;;;;7.42;100.00;97845.16;106911;1276;22587;-80
2023/04/19 03:31:19;;;;;;;24.90;22.80;;;;;;;7.39;100.00;97841.16;106900;1275;22782;-81
2023/04/19 03:33:49;;;;;;;25.90;23.60;;;;;;;7.38;100.00;97836.50;106889;1276;22932;-82
2023/04/19 03:36:18;;;;;;;25.50;23.30;;;;;;;7.39;100.00;97827.51;106904;1276;22493;-82
2023/04/19 03:38:46;;;;;;;24.00;21.90;;;;;;;7.40;100.00;97824.05;106766;1276;25388;-82
2023/04/19 03:41:18;;;;;;;23.30;21.00;;;;;;;7.45;100.00;97815.77;106826;1276;24325;-77
2023/04/19 03:43:47;;;;;;;22.40;20.20;;;;;;;7.65;100.00;97812.17;106973;1276;24333;-78
2023/04/19 03:46:15;;;;;;;22.70;20.70;;;;;;;7.81;100.00;97808.42;106907;1276;22597;-78
2023/04/19 03:48:43;;;;;;;26.20;23.90;;;;;;;8.06;100.00;97817.04;106926;1276;22535;-77
2023/04/19 03:51:13;;;;;;;24.40;22.30;;;;;;;8.10;100.00;97821.66;106981;1276;22634;-76
2023/04/19 03:53:41;;;;;;;25.40;23.10;;;;;;;8.04;100.00;97821.83;106907;1276;22532;-77
2023/04/19 03:56:09;;;;;;;23.00;21.00;;;;;;;7.89;100.00;97819.30;106550;1276;22803;-77
2023/04/19 03:58:38;;;;;;;24.50;22.40;;;;;;;7.78;100.00;97817.73;106819;1276;23930;-77
2023/04/19 04:01:20;;;;;;;22.80;20.60;;;;;;;7.67;100.00;97823.89;106971;1276;22571;-77
2023/04/19 04:03:49;;;;;;;21.20;19.20;;;;;;;7.59;100.00;97819.89;106817;1276;22548;-78
2023/04/19 04:06:18;;;;;;;21.80;19.80;;;;;;;7.53;100.00;97815.05;106907;1276;22648;-77
2023/04/19 04:08:46;;;;;;;21.60;19.70;;;;;;;7.47;100.00;97810.91;106851;1276;22633;-77
2023/04/19 04:11:14;;;;;;;22.00;19.90;;;;;;;7.44;100.00;97810.52;106707;1276;22673;-77
2023/04/19 04:13:45;;;;;;;22.90;20.90;;;;;;;7.42;100.00;97815.84;106700;1276;22478;-80
2023/04/19 04:16:17;;;;;;;23.20;21.20;;;;;;;7.34;100.00;97815.09;106930;1276;22634;-80
2023/04/19 04:18:46;;;;;;;22.10;20.20;;;;;;;7.30;100.00;97813.19;106970;1276;22531;-82
2023/04/19 04:21:14;;;;;;;24.70;22.50;;;;;;;7.26;100.00;97812.64;106927;1276;24368;-80
2023/04/19 04:23:44;;;;;;;25.90;23.50;;;;;;;7.25;100.00;97811.46;107047;1276;24401;-82
2023/04/19 04:26:18;;;;;;;26.10;23.40;;;;;;;7.22;100.00;97813.14;107196;1277;25538;-84
2023/04/19 04:29:03;;;;;;;24.50;22.40;;;;;;;7.21;100.00;97816.58;107272;1271;22730;-79
2023/04/19 04:31:34;;;;;;;25.30;23.10;;;;;;;7.20;100.00;97818.41;107012;1277;22794;-78
2023/04/19 04:34:03;;;;;;;25.10;22.70;;;;;;;7.22;100.00;97815.71;107047;1277;24972;-78
2023/04/19 04:36:31;;;;;;;23.00;20.90;;;;;;;7.22;100.00;97818.72;107384;1276;22786;-83
2023/04/19 04:39:00;;;;;;;24.60;22.40;;;;;;;7.26;100.00;97815.31;106901;1276;22534;-79
2023/04/19 04:41:30;;;;;;;27.20;24.70;;;;;;;7.27;100.00;97813.58;106662;1277;22815;-80
2023/04/19 04:43:59;;;;;;;31.50;29.10;;;;;;;7.28;100.00;97815.23;106425;1276;24272;-80
2023/04/19 04:46:47;;;;;;;31.60;29.10;;;;;;;7.29;100.00;97807.41;106718;1276;24180;-79
2023/04/19 04:49:20;;;;;;;36.20;33.10;;;;;;;7.28;100.00;97807.05;106722;1267;22643;-78
2023/04/19 04:51:48;;;;;;;37.30;34.10;;;;;;;7.27;100.00;97802.17;106440;1276;24436;-81
2023/04/19 04:54:17;;;;;;;30.50;27.80;;;;;;;7.27;100.00;97794.98;106715;1276;22735;-80
2023/04/19 04:56:45;;;;;;;24.30;22.40;;;;;;;7.28;100.00;97784.89;106575;1276;22982;-80
2023/04/19 04:59:14;;;;;;;26.90;24.60;;;;;;;7.32;100.00;97786.21;106615;1277;25370;-80
2023/04/19 05:01:44;;;;;;;25.10;23.10;;;;;;;7.32;100.00;97803.91;106671;1276;22568;-80
2023/04/19 05:04:14;;;;;;;26.70;24.50;;;;;;;7.27;100.00;97806.18;106751;1276;24364;-80
2023/04/19 05:06:43;;;;;;;24.90;22.90;;;;;;;7.21;100.00;97804.41;106677;1277;22528;-79
2023/04/19 05:09:11;;;;;;;23.80;21.60;;;;;;;7.21;100.00;97797.92;106636;1277;24549;-86
2023/04/19 05:11:39;;;;;;;25.00;22.90;;;;;;;7.32;100.00;97795.05;106735;1276;22540;-81
2023/04/19 05:14:07;;;;;;;25.60;23.40;;;;;;;7.50;100.00;97790.67;106893;1277;25513;-81
2023/04/19 05:16:35;;;;;;;24.40;22.30;;;;;;;7.60;100.00;97786.26;106890;1276;22549;-82
2023/04/19 05:19:04;;;;;;;26.30;24.00;;;;;;;7.81;100.00;97781.13;106737;1276;22937;-83
2023/04/19 05:21:35;;;;;;;29.00;26.70;;;;;;;7.93;100.00;97781.27;106884;1277;25394;-82
2023/04/19 05:24:04;;;;;;;23.30;21.30;;;;;;;8.04;100.00;97782.23;106702;1276;22657;-82
2023/04/19 05:26:33;;;;;;;26.80;24.40;;;;;;;8.22;100.00;97773.11;106642;1276;22650;-83
2023/04/19 05:29:02;;;;;;;26.50;24.30;;;;;;;8.31;100.00;97765.29;106760;1276;23496;-85
2023/04/19 05:32:00;;;;;;;25.20;23.10;;;;;;;8.37;100.00;97764.84;106642;1276;22535;-83
2023/04/19 05:34:32;;;;;;;22.60;20.70;;;;;;;8.52;100.00;97766.73;106722;1277;24239;-81
2023/04/19 05:37:02;;;;;;;22.20;20.30;;;;;;;8.77;100.00;97762.36;106812;1276;22542;-83
2023/04/19 05:39:30;;;;;;;21.80;19.90;;;;;;;8.92;100.00;97762.63;106776;1276;22665;-82
2023/04/19 05:41:59;;;;;;;20.20;18.60;;;;;;;8.99;100.00;97769.41;106768;1277;22531;-83
2023/04/19 05:44:27;;;;;;;21.70;19.90;;;;;;;8.86;100.00;97782.34;106627;1277;22535;-82
2023/04/19 05:46:55;;;;;;;23.60;21.70;;;;;;;8.64;100.00;97787.73;106750;1277;22531;-81
2023/04/19 05:49:47;;;;;;;20.70;19.10;;;;;;;8.57;100.00;97788.84;106551;1276;169862;-83
2023/04/19 05:52:19;;;;;;;21.10;19.40;;;;;;;8.65;100.00;97792.17;106727;1276;22535;-82
2023/04/19 05:54:51;;;;;;;20.50;18.70;;;;;;;8.63;100.00;97792.46;106730;1276;22699;-83
2023/04/19 05:57:19;;;;;;;20.30;18.40;;;;;;;8.52;100.00;97792.13;106745;1276;24281;-83
2023/04/19 05:59:47;;;;;;;19.30;17.80;;;;;;;8.44;100.00;97789.27;106626;1277;25409;-83
2023/04/19 06:02:17;;;;;;;20.00;18.30;;;;;;;8.42;100.00;97790.52;106808;1276;22524;-84
2023/04/19 06:04:45;;;;;;;21.00;19.20;;;;;;;8.36;100.00;97792.50;106801;1276;22724;-81
2023/04/19 06:07:14;;;;;;;21.10;19.20;;;;;;;8.36;100.00;97790.58;107579;1277;22526;-82
2023/04/19 06:09:58;;;;;;;18.90;17.30;;;;;;;8.42;100.00;97788.91;106830;1277;25561;-83
2023/04/19 06:12:26;;;;;;;21.60;19.70;;;;;;;8.50;100.00;97793.38;107154;1277;22513;-79
2023/04/19 06:14:54;;;;;;;22.80;20.80;;;;;;;8.50;100.00;97790.33;107009;1276;22497;-83
2023/04/19 06:17:24;;;;;;;23.50;21.50;;;;;;;8.53;100.00;97791.52;106838;1276;22527;-80
2023/04/19 06:19:53;;;;;;;20.10;18.30;;;;;;;8.61;100.00;97793.73;106824;1276;22633;-81
2023/04/19 06:22:21;;;;;;;20.50;18.80;;;;;;;8.70;100.00;97795.93;106935;1271;25398;-80
2023/04/19 06:24:49;;;;;;;21.60;19.60;;;;;;;8.70;100.00;97797.98;107041;1276;24254;-81
2023/04/19 06:27:17;;;;;;;18.50;16.90;;;;;;;8.67;100.00;97801.94;106972;1276;25515;-78
2023/04/19 06:29:45;;;;;;;17.20;15.60;;;;;;;8.65;100.00;97804.53;106832;1276;25373;-81
2023/04/19 06:32:13;;;;;;;18.00;16.50;;;;;;;8.57;100.00;97803.83;107026;1276;25382;-80
2023/04/19 06:34:41;;;;;;;17.30;15.80;;;;;;;8.58;100.00;97805.86;106915;1276;23165;-80
2023/04/19 06:37:09;;;;;;;20.60;18.90;;;;;;;8.55;100.00;97807.61;107000;1276;22547;-80
2023/04/19 06:39:37;;;;;;;18.90;17.20;;;;;;;8.49;100.00;97811.92;106921;1276;22662;-81
2023/04/19 06:42:05;;;;;;;11.60;10.60;;;;;;;8.30;100.00;97814.91;107030;1276;22526;-81
2023/04/19 06:44:33;;;;;;;10.30;9.40;;;;;;;8.13;100.00;97817.61;106808;1276;23816;-80
2023/04/19 06:47:02;;;;;;;8.40;7.50;;;;;;;8.01;100.00;97821.17;107156;1276;22792;-79
2023/04/19 06:49:30;;;;;;;7.90;7.20;;;;;;;7.90;99.69;97822.09;107165;1276;22523;-82
2023/04/19 06:51:58;;;;;;;7.20;6.50;;;;;;;7.72;99.62;97817.57;107275;1276;22542;-79
2023/04/19 06:54:26;;;;;;;7.10;6.40;;;;;;;7.64;99.62;97821.23;107408;1276;22708;-84
2023/04/19 06:56:55;;;;;;;5.80;5.30;;;;;;;7.56;99.58;97829.03;107977;1277;22575;-82
2023/04/19 06:59:27;;;;;;;5.60;4.90;;;;;;;7.48;99.12;97823.47;106802;1277;24750;-84
2023/04/19 07:01:56;;;;;;;5.50;5.00;;;;;;;7.45;98.93;97833.19;106739;1277;22630;-88
2023/04/19 07:04:25;;;;;;;6.40;5.80;;;;;;;7.43;99.26;97830.14;107441;1276;22524;-84
2023/04/19 07:06:53;;;;;;;5.50;4.90;;;;;;;7.49;99.66;97829.62;107417;1273;22622;-83
2023/04/19 07:09:22;;;;;;;5.00;4.50;;;;;;;7.55;99.25;97828.35;107418;1276;22573;-87
2023/04/19 07:11:50;;;;;;;5.70;5.00;;;;;;;7.57;98.67;97826.66;107474;1276;22544;-85
2023/04/19 07:14:18;;;;;;;5.60;5.10;;;;;;;7.57;99.26;97829.98;107337;1276;24092;-86
2023/04/19 07:16:46;;;;;;;5.30;4.80;;;;;;;7.62;98.84;97832.52;107369;1276;22629;-84
2023/04/19 07:19:14;;;;;;;5.70;4.80;;;;;;;7.65;98.58;97834.80;107318;1276;22615;-87
2023/04/19 07:21:42;;;;;;;4.40;3.80;;;;;;;7.70;99.00;97830.20;107083;1276;22721;-85
2023/04/19 07:24:10;;;;;;;5.30;4.80;;;;;;;7.73;98.31;97831.73;107015;1276;22588;-84
2023/04/19 07:26:38;;;;;;;5.50;5.00;;;;;;;7.79;98.33;97829.05;107070;1276;24207;-86
2023/04/19 07:29:06;;;;;;;4.10;3.70;;;;;;;7.87;97.09;97830.48;107463;1276;22652;-86
2023/04/19 07:31:35;;;;;;;4.70;3.90;;;;;;;7.90;96.89;97826.91;107418;1276;22678;-87
2023/04/19 07:34:03;;;;;;;4.40;4.00;;;;;;;7.99;96.40;97820.60;107076;1276;22658;-84
2023/04/19 07:36:33;;;;;;;4.10;3.70;;;;;;;8.06;95.80;97816.35;107056;1276;24152;-85
2023/04/19 07:39:01;;;;;;;5.30;4.40;;;;;;;8.09;93.60;97823.45;107178;1276;22562;-86
2023/04/19 07:41:31;;;;;;;4.40;4.00;;;;;;;8.06;93.09;97823.48;107279;1276;22618;-85
2023/04/19 07:43:59;;;;;;;4.30;3.90;;;;;;;8.07;92.97;97829.70;107080;1276;25401;-82
2023/04/19 07:46:27;;;;;;;5.80;5.20;;;;;;;8.16;93.34;97830.20;107316;1276;22549;-83
2023/04/19 07:48:55;;;;;;;5.60;4.60;;;;;;;8.28;94.13;97834.48;107179;1276;22593;-83
2023/04/19 07:51:24;;;;;;;5.00;4.50;;;;;;;8.40;93.41;97835.88;107560;1277;25612;-86
2023/04/19 07:53:52;;;;;;;4.50;4.00;;;;;;;8.43;92.63;97833.00;107251;1276;22590;-85
2023/04/19 07:56:21;;;;;;;4.40;4.00;;;;;;;8.47;92.69;97828.55;107256;1276;25922;-79
2023/04/19 07:58:49;;;;;;;5.40;4.50;;;;;;;8.50;92.29;97826.90;107463;1275;25618;-79
2023/04/19 08:01:35;;;;;;;4.90;4.30;;;;;;;8.53;92.59;97826.00;107086;1276;24222;-79
2023/04/19 08:04:04;;;;;;;5.00;4.50;;;;;;;8.49;91.28;97824.50;107123;1276;22930;-79
2023/04/19 08:06:33;;;;;;;5.20;4.70;;;;;;;8.36;90.76;97829.45;107008;1253;25619;-78
2023/04/19 08:09:02;;;;;;;5.40;4.90;;;;;;;8.22;91.33;97827.33;106870;1276;24359;-78
2023/04/19 08:11:30;;;;;;;5.70;5.10;;;;;;;8.25;91.74;97830.48;107006;1276;25400;-78
2023/04/19 08:13:58;;;;;;;6.00;4.80;;;;;;;8.31;91.86;97831.53;106759;1276;22679;-78
2023/04/19 08:16:41;;;;;;;5.90;4.70;;;;;;;8.19;90.72;97832.14;107015;1276;25448;-80
2023/04/19 08:19:30;;;;;;;6.40;5.10;;;;;;;8.05;91.00;97838.69;107203;1275;22524;-80
2023/04/19 08:21:58;;;;;;;8.40;5.30;;;;;;;7.92;91.52;97841.31;106964;1275;25270;-83
2023/04/19 08:24:26;;;;;;;8.10;6.40;;;;;;;7.81;91.56;97836.91;107675;1268;22658;-81
2023/04/19 08:26:55;;;;;;;8.60;6.70;;;;;;;7.76;92.07;97837.88;106917;1276;25398;-80
2023/04/19 08:29:25;;;;;;;7.60;5.70;;;;;;;7.70;92.22;97833.04;107035;1276;22581;-81
2023/04/19 08:31:53;;;;;;;6.10;5.50;;;;;;;7.71;92.34;97833.14;107056;1276;22534;-80
2023/04/19 08:34:21;;;;;;;7.30;5.60;;;;;;;7.68;92.40;97836.83;107045;1276;22547;-82
2023/04/19 08:36:49;;;;;;;5.00;4.50;;;;;;;7.66;92.75;97836.88;107078;1276;25308;-80
2023/04/19 08:39:31;;;;;;;6.00;4.60;;;;;;;7.63;92.71;97836.37;106854;1276;22574;-80
2023/04/19 08:42:06;;;;;;;6.10;5.10;;;;;;;7.57;92.91;97837.65;106768;1276;22527;-80
2023/04/19 08:44:46;;;;;;;4.70;4.20;;;;;;;7.64;92.50;97840.92;106841;1276;22565;-78
2023/04/19 08:47:18;;;;;;;4.30;3.90;;;;;;;7.66;92.67;97843.69;106735;1276;22886;-79
2023/04/19 08:50:07;;;;;;;5.10;4.50;;;;;;;7.72;92.38;97845.68;106726;1276;22535;-78
2023/04/19 08:52:57;;;;;;;4.40;3.90;;;;;;;7.72;91.24;97848.27;106606;1276;25330;-78
2023/04/19 08:55:42;;;;;;;4.70;4.20;;;;;;;7.59;90.64;97847.23;106760;1276;23286;-80
2023/04/19 08:58:32;;;;;;;4.60;3.90;;;;;;;7.51;90.80;97843.66;106955;1276;25374;-79
2023/04/19 09:01:04;;;;;;;5.10;4.10;;;;;;;7.53;91.29;97841.87;106827;1276;22542;-79
2023/04/19 09:03:33;;;;;;;5.00;4.00;;;;;;;7.58;91.02;97841.19;107245;1276;25324;-79
2023/04/19 09:06:18;;;;;;;4.20;3.80;;;;;;;7.58;91.80;97845.52;107000;1276;25468;-79
2023/04/19 09:08:47;;;;;;;4.50;4.10;;;;;;;7.71;91.64;97839.84;107010;1276;25418;-79
2023/04/19 09:11:15;;;;;;;6.40;4.30;;;;;;;7.81;91.20;97839.21;107047;1275;22527;-79
2023/04/19 09:13:43;;;;;;;7.00;4.10;;;;;;;7.88;90.41;97834.70;107014;1276;22524;-80
2023/04/19 09:16:24;;;;;;;4.70;4.30;;;;;;;7.94;90.61;97834.55;107020;1276;22527;-79
2023/04/19 09:18:55;;;;;;;4.90;4.10;;;;;;;8.05;90.85;97834.61;107015;1276;22516;-79
2023/04/19 09:21:39;;;;;;;4.80;4.40;;;;;;;8.17;89.95;97834.63;106959;1276;25455;-80
2023/04/19 09:24:07;;;;;;;4.50;4.10;;;;;;;8.15;89.10;97829.46;107101;1276;24389;-79
2023/04/19 09:26:36;;;;;;;4.60;4.20;;;;;;;8.16;89.65;97828.80;106996;1275;25313;-79
2023/04/19 09:29:05;;;;;;;6.90;5.10;;;;;;;8.22;89.47;97829.39;107120;1276;23318;-79
2023/04/19 09:31:35;;;;;;;4.90;4.40;;;;;;;8.29;89.95;97830.98;106772;1276;24232;-81
2023/04/19 09:34:18;;;;;;;5.20;4.70;;;;;;;8.38;90.24;97826.59;107025;1275;24219;-79
2023/04/19 09:36:47;;;;;;;5.70;5.00;;;;;;;8.49;90.43;97824.44;107173;1276;22610;-77
2023/04/19 09:39:32;;;;;;;4.80;4.20;;;;;;;8.62;90.19;97827.08;106974;1276;22636;-78
2023/04/19 09:42:00;;;;;;;4.30;3.80;;;;;;;8.63;88.51;97828.47;106873;1276;22603;-79
2023/04/19 09:44:29;;;;;;;5.80;4.50;;;;;;;8.60;88.89;97823.98;107193;1276;22858;-79
2023/04/19 09:47:26;;;;;;;4.30;3.80;;;;;;;8.69;89.60;97825.82;106545;1273;22681;-78
2023/04/19 09:50:05;;;;;;;4.20;3.80;;;;;;;8.77;89.61;97827.64;106763;1276;24129;-78
2023/04/19 09:52:49;;;;;;;6.10;5.50;;;;;;;8.73;87.37;97833.77;107005;1276;25407;-78
2023/04/19 09:55:18;;;;;;;5.30;4.80;;;;;;;8.58;87.68;97833.25;107039;1276;23346;-77
2023/04/19 09:57:50;;;;;;;4.70;3.90;;;;;;;8.52;87.88;97834.94;107011;1276;24440;-78
2023/04/19 10:00:23;;;;;;;6.20;5.00;;;;;;;8.47;88.06;97833.98;106763;1276;24258;-78
2023/04/19 10:02:56;;;;;;;6.50;5.00;;;;;;;8.47;88.14;97833.39;106754;1276;23332;-77
2023/04/19 10:05:25;;;;;;;4.80;4.30;;;;;;;8.43;88.66;97829.02;106870;1276;22528;-79
2023/04/19 10:07:58;;;;;;;4.90;4.40;;;;;;;8.43;88.30;97831.38;107077;1276;22651;-81
2023/04/19 10:10:29;;;;;;;6.20;5.00;;;;;;;8.44;88.10;97831.80;107111;1276;22524;-82
2023/04/19 10:13:03;;;;;;;5.30;4.60;;;;;;;8.45;88.75;97836.03;107127;1276;22533;-83
2023/04/19 10:15:47;;;;;;;8.90;6.90;;;;;;;8.49;88.75;97835.38;107107;1276;23276;-81
2023/04/19 10:18:20;;;;;;;7.90;7.10;;;;;;;8.53;89.26;97839.16;107159;1276;22790;-81
2023/04/19 10:20:57;;;;;;;6.30;5.70;;;;;;;8.56;89.00;97832.52;106689;1276;24266;-81
2023/04/19 10:23:25;;;;;;;7.30;6.60;;;;;;;8.55;88.79;97833.45;107106;1276;22573;-83
2023/04/19 10:25:58;;;;;;;6.90;6.20;;;;;;;8.50;88.69;97836.62;107391;1276;22791;-82
2023/04/19 10:28:29;;;;;;;6.00;5.40;;;;;;;8.42;88.55;97837.94;107055;1276;22536;-83
2023/04/19 10:31:02;;;;;;;6.20;4.70;;;;;;;8.38;88.52;97837.65;106867;1276;22626;-85
2023/04/19 10:33:35;;;;;;;5.10;4.60;;;;;;;8.35;88.73;97833.70;107114;1276;22659;-83
2023/04/19 10:36:08;;;;;;;5.50;4.20;;;;;;;8.31;88.05;97834.81;107196;1276;25456;-80
2023/04/19 10:38:36;;;;;;;5.00;4.20;;;;;;;8.18;87.61;97830.88;106971;1276;25410;-81
2023/04/19 10:41:10;;;;;;;5.50;4.60;;;;;;;8.10;88.05;97827.48;106881;1276;22633;-81
2023/04/19 10:44:08;;;;;;;6.10;4.70;;;;;;;8.10;87.86;97831.61;107008;1262;22635;-81
2023/04/19 10:46:39;;;;;;;6.20;5.60;;;;;;;8.08;87.67;97827.91;107173;1276;22527;-81
2023/04/19 10:49:08;;;;;;;5.70;4.50;;;;;;;8.12;87.58;97827.98;106991;1276;25519;-82
2023/04/19 10:51:41;;;;;;;5.30;4.80;;;;;;;8.09;86.64;97830.70;107600;1266;22595;-81
2023/04/19 10:54:29;;;;;;;5.50;5.00;;;;;;;8.02;86.89;97832.70;107544;1276;22744;-83
2023/04/19 10:57:06;;;;;;;6.20;5.00;;;;;;;7.99;87.36;97835.03;107271;1276;22580;-81
2023/04/19 10:59:35;;;;;;;5.80;4.90;;;;;;;7.98;87.72;97831.66;107428;1276;22677;-82
2023/04/19 11:02:26;;;;;;;6.40;4.50;;;;;;;8.01;87.55;97826.05;108641;1275;22547;-82
2023/04/19 11:04:55;;;;;;;7.00;5.70;;;;;;;8.06;87.47;97827.40;106950;1276;22520;-82
2023/04/19 11:07:23;;;;;;;7.10;5.10;;;;;;;8.09;87.49;97823.45;107206;1275;22520;-83
2023/04/19 11:09:51;;;;;;;8.10;7.10;;;;;;;8.17;88.34;97822.23;107194;1276;24212;-83
2023/04/19 11:12:20;;;;;;;9.30;7.90;;;;;;;8.28;87.96;97824.71;107155;1276;22657;-84
2023/04/19 11:14:58;;;;;;;7.10;6.30;;;;;;;8.35;87.87;97827.84;107032;1276;25310;-81
2023/04/19 11:17:31;;;;;;;6.80;5.40;;;;;;;8.39;87.53;97832.17;107007;1276;22590;-81
2023/04/19 11:20:05;;;;;;;7.70;5.70;;;;;;;8.39;88.08;97833.15;106848;1276;22578;-81
2023/04/19 11:22:35;;;;;;;7.10;6.40;;;;;;;8.42;87.45;97833.48;107089;1275;22541;-81
2023/04/19 11:25:12;;;;;;;6.80;5.90;;;;;;;8.38;87.42;97838.41;106785;1276;22622;-81
2023/04/19 11:27:41;;;;;;;6.00;5.40;;;;;;;8.21;87.65;97839.10;107076;1275;24268;-81
2023/04/19 11:30:12;;;;;;;6.20;5.30;;;;;;;8.11;88.24;97841.09;107130;1276;25403;-82
2023/04/19 11:32:58;;;;;;;7.60;6.80;;;;;;;8.02;88.76;97841.66;106848;1276;22752;-81
2023/04/19 11:35:27;;;;;;;8.80;7.90;;;;;;;7.91;89.42;97845.83;106885;1253;24273;-81
2023/04/19 11:37:58;;;;;;;9.90;8.90;;;;;;;7.87;89.75;97842.98;107357;1276;23819;-81